METAR Data
IDs: Format: Raw Decoded Include TAF

Data at: 0227 UTC 24 Jun 2021

KCDR 240153Z AUTO 24003KT 10SM CLR 30/06 A2974 RMK AO2 SLP037 T03000056